Time;durP1;ratioP1;P1;durP2;ratioP2;P2;SDS_P1;SDS_P2;PMS_P1;PMS_P2;Temp;Humidity;BMP_temperature;BMP_pressure;BME280_temperature;BME280_humidity;BME280_pressure;Samples;Min_cycle;Max_cycle;Signal;HPM_P1;HPM_P2
2024/01/24 00:02:03;;;;;;;2.22;0.50;;;;;;;;;;10121932;29;20128;-75
2024/01/24 00:07:06;;;;;;;1.75;0.70;;;;;;;;;;10117861;29;20056;-76
2024/01/24 00:12:09;;;;;;;0.80;0.40;;;;;;;;;;10124264;29;20123;-75
2024/01/24 00:17:14;;;;;;;0.80;0.40;;;;;;;;;;10123517;29;20128;-75
2024/01/24 00:22:18;;;;;;;0.50;0.43;;;;;;;;;;10124476;29;20059;-75
2024/01/24 00:27:21;;;;;;;0.65;0.40;;;;;;;;;;10122024;29;20074;-75
2024/01/24 00:32:25;;;;;;;1.35;0.60;;;;;;;;;;10121995;29;20234;-75
2024/01/24 00:37:29;;;;;;;0.20;0.20;;;;;;;;;;10123154;29;20072;-75
2024/01/24 00:42:32;;;;;;;2.10;0.50;;;;;;;;;;10123329;29;20049;-75
2024/01/24 00:47:37;;;;;;;1.15;0.50;;;;;;;;;;10121466;29;20512;-75
2024/01/24 00:52:40;;;;;;;0.95;0.40;;;;;;;;;;10121176;29;20045;-75
2024/01/24 00:57:44;;;;;;;0.65;0.50;;;;;;;;;;10121652;29;20076;-75
2024/01/24 01:02:48;;;;;;;0.75;0.30;;;;;;;;;;10117460;29;20053;-75
2024/01/24 01:07:52;;;;;;;1.17;0.30;;;;;;;;;;10118256;29;20516;-75
2024/01/24 01:12:55;;;;;;;0.57;0.30;;;;;;;;;;10114428;29;20101;-75
2024/01/24 01:18:00;;;;;;;0.95;0.20;;;;;;;;;;10124609;29;20059;-75
2024/01/24 01:23:04;;;;;;;1.38;0.38;;;;;;;;;;10121183;29;20049;-75
2024/01/24 01:28:07;;;;;;;0.38;0.30;;;;;;;;;;10117940;29;20057;-75
2024/01/24 01:33:12;;;;;;;0.20;0.20;;;;;;;;;;10124593;29;20544;-75
2024/01/24 01:38:15;;;;;;;0.20;0.20;;;;;;;;;;10119155;29;20060;-75
2024/01/24 01:43:19;;;;;;;0.65;0.52;;;;;;;;;;10113022;29;20048;-75
2024/01/24 01:48:24;;;;;;;0.20;0.20;;;;;;;;;;10121957;29;20062;-75
2024/01/24 01:53:27;;;;;;;0.30;0.20;;;;;;;;;;10123567;29;20870;-75
2024/01/24 01:58:31;;;;;;;0.50;0.30;;;;;;;;;;10124467;29;20092;-75
2024/01/24 02:03:37;;;;;;;0.20;0.20;;;;;;;;;;10121566;29;20072;-75
2024/01/24 02:08:40;;;;;;;1.35;0.30;;;;;;;;;;10118389;29;20584;-75
2024/01/24 02:13:43;;;;;;;2.83;0.40;;;;;;;;;;10111015;29;20044;-75
2024/01/24 02:18:48;;;;;;;0.40;0.30;;;;;;;;;;10117417;29;20403;-76
2024/01/24 02:23:52;;;;;;;1.27;0.30;;;;;;;;;;10113325;29;20071;-75
2024/01/24 02:28:56;;;;;;;0.40;0.25;;;;;;;;;;10115936;29;20056;-75
2024/01/24 02:34:00;;;;;;;1.00;0.47;;;;;;;;;;10125593;29;20044;-75
2024/01/24 02:39:03;;;;;;;0.50;0.28;;;;;;;;;;10115772;29;20480;-76
2024/01/24 02:44:08;;;;;;;0.50;0.30;;;;;;;;;;10115470;29;20045;-75
2024/01/24 02:49:11;;;;;;;1.90;0.30;;;;;;;;;;10117984;29;20060;-75
2024/01/24 02:54:14;;;;;;;0.60;0.30;;;;;;;;;;10115185;29;20063;-75
2024/01/24 02:59:19;;;;;;;0.20;0.20;;;;;;;;;;10110656;29;20057;-75
2024/01/24 03:04:22;;;;;;;0.32;0.30;;;;;;;;;;10114323;29;20084;-75
2024/01/24 03:09:26;;;;;;;0.40;0.20;;;;;;;;;;10115122;29;20080;-75
2024/01/24 03:14:30;;;;;;;1.00;0.30;;;;;;;;;;10117704;29;20053;-75
2024/01/24 03:19:34;;;;;;;0.20;0.20;;;;;;;;;;10118279;29;20649;-75
2024/01/24 03:24:37;;;;;;;0.32;0.30;;;;;;;;;;10119845;29;20541;-75
2024/01/24 03:29:43;;;;;;;3.08;0.10;;;;;;;;;;10119162;29;20135;-75
2024/01/24 03:34:53;;;;;;;0.70;0.30;;;;;;;;;;10127271;29;20045;-75
2024/01/24 03:39:57;;;;;;;0.57;0.25;;;;;;;;;;10124849;29;20144;-75
2024/01/24 03:45:02;;;;;;;0.20;0.20;;;;;;;;;;10124947;29;20036;-76
2024/01/24 03:50:06;;;;;;;0.10;0.10;;;;;;;;;;10125657;29;20428;-75
2024/01/24 03:55:09;;;;;;;0.20;0.20;;;;;;;;;;10123882;29;20052;-75
2024/01/24 04:00:16;;;;;;;0.45;0.22;;;;;;;;;;10124624;29;20048;-76
2024/01/24 04:05:19;;;;;;;0.17;0.17;;;;;;;;;;10124384;29;20545;-75
2024/01/24 04:10:22;;;;;;;0.30;0.30;;;;;;;;;;10119304;29;20074;-75
2024/01/24 04:15:27;;;;;;;0.32;0.20;;;;;;;;;;10122463;29;20058;-75
2024/01/24 04:20:31;;;;;;;0.30;0.20;;;;;;;;;;10119450;29;20047;-75
2024/01/24 04:25:34;;;;;;;0.30;0.30;;;;;;;;;;10121781;29;20052;-75
2024/01/24 04:30:38;;;;;;;0.60;0.22;;;;;;;;;;10128536;29;20056;-75
2024/01/24 04:35:42;;;;;;;0.57;0.20;;;;;;;;;;10131322;29;20148;-75
2024/01/24 04:40:45;;;;;;;0.20;0.20;;;;;;;;;;10125277;29;20059;-75
2024/01/24 04:45:50;;;;;;;0.30;0.30;;;;;;;;;;10115296;29;20048;-75
2024/01/24 04:50:53;;;;;;;0.63;0.25;;;;;;;;;;10122240;29;20108;-75
2024/01/24 04:55:57;;;;;;;0.20;0.20;;;;;;;;;;10123520;29;20044;-75
2024/01/24 05:01:01;;;;;;;0.55;0.35;;;;;;;;;;10122434;29;20041;-75
2024/01/24 05:06:05;;;;;;;0.50;0.20;;;;;;;;;;10114752;29;20101;-75
2024/01/24 05:11:09;;;;;;;0.47;0.30;;;;;;;;;;10160898;23;20527;-75
2024/01/24 05:16:13;;;;;;;0.68;0.30;;;;;;;;;;10159256;29;20135;-75
2024/01/24 05:21:17;;;;;;;0.17;0.17;;;;;;;;;;10162075;29;20075;-75
2024/01/24 05:26:21;;;;;;;0.80;0.35;;;;;;;;;;10159510;29;20055;-75
2024/01/24 05:31:25;;;;;;;0.60;0.30;;;;;;;;;;10160288;29;20432;-75
2024/01/24 05:36:29;;;;;;;0.73;0.40;;;;;;;;;;10162982;29;20377;-75
2024/01/24 05:41:32;;;;;;;0.90;0.65;;;;;;;;;;10158135;29;20597;-75
2024/01/24 05:46:37;;;;;;;0.65;0.52;;;;;;;;;;10160950;29;20048;-75
2024/01/24 05:51:42;;;;;;;1.15;0.60;;;;;;;;;;10156442;29;20076;-75
2024/01/24 05:56:45;;;;;;;0.70;0.50;;;;;;;;;;10158350;29;20068;-75
2024/01/24 06:01:50;;;;;;;1.40;0.80;;;;;;;;;;10167224;29;20059;-75
2024/01/24 06:06:54;;;;;;;0.60;0.30;;;;;;;;;;10166763;29;20047;-76
2024/01/24 06:11:58;;;;;;;1.13;0.32;;;;;;;;;;10160337;29;20052;-76
2024/01/24 06:17:03;;;;;;;0.30;0.30;;;;;;;;;;10161229;29;20059;-75
2024/01/24 06:22:06;;;;;;;0.30;0.30;;;;;;;;;;10162632;29;20047;-76
2024/01/24 06:27:10;;;;;;;0.28;0.25;;;;;;;;;;10158877;29;20044;-75
2024/01/24 06:32:14;;;;;;;0.20;0.20;;;;;;;;;;10162416;29;20058;-75
2024/01/24 06:37:18;;;;;;;0.25;0.25;;;;;;;;;;10165434;29;20047;-75
2024/01/24 06:42:21;;;;;;;0.17;0.17;;;;;;;;;;10163288;29;20043;-75
2024/01/24 06:47:25;;;;;;;0.60;0.35;;;;;;;;;;10156268;29;20054;-75
2024/01/24 06:52:30;;;;;;;0.20;0.20;;;;;;;;;;10157761;29;20055;-75
2024/01/24 06:57:34;;;;;;;0.90;0.45;;;;;;;;;;10154075;29;20515;-75
2024/01/24 07:02:39;;;;;;;0.30;0.30;;;;;;;;;;10159585;29;20055;-75
2024/01/24 07:07:43;;;;;;;0.28;0.28;;;;;;;;;;10161771;29;20050;-75
2024/01/24 07:12:55;;;;;;;0.43;0.38;;;;;;;;;;10158109;29;20418;-75
2024/01/24 07:18:04;;;;;;;0.77;0.35;;;;;;;;;;10162437;29;20064;-75
2024/01/24 07:23:08;;;;;;;0.63;0.30;;;;;;;;;;10155301;29;20123;-76
2024/01/24 07:28:11;;;;;;;1.40;0.50;;;;;;;;;;10159811;29;20130;-76
2024/01/24 07:33:16;;;;;;;4.45;1.73;;;;;;;;;;10159624;29;20163;-75
2024/01/24 07:38:20;;;;;;;4.40;1.40;;;;;;;;;;10162057;29;20063;-75
2024/01/24 07:43:23;;;;;;;3.30;1.15;;;;;;;;;;10149564;29;20063;-75
2024/01/24 07:48:28;;;;;;;4.45;0.80;;;;;;;;;;10154940;29;20067;-75
2024/01/24 07:53:34;;;;;;;3.60;0.80;;;;;;;;;;10156182;29;20108;-75
2024/01/24 07:58:40;;;;;;;1.33;0.60;;;;;;;;;;10159375;29;20390;-75
2024/01/24 08:03:44;;;;;;;2.88;1.13;;;;;;;;;;10156086;29;20099;-75
2024/01/24 08:08:48;;;;;;;2.03;0.80;;;;;;;;;;10163891;29;20044;-75
2024/01/24 08:13:51;;;;;;;2.13;0.77;;;;;;;;;;10164816;29;20759;-75
2024/01/24 08:18:58;;;;;;;2.17;0.73;;;;;;;;;;10165271;29;20052;-75
2024/01/24 08:24:01;;;;;;;1.58;0.68;;;;;;;;;;10157835;29;20071;-74
2024/01/24 08:29:04;;;;;;;2.53;0.98;;;;;;;;;;10164670;29;20563;-75
2024/01/24 08:34:09;;;;;;;2.50;0.88;;;;;;;;;;10169141;29;20048;-74
2024/01/24 08:39:12;;;;;;;2.95;0.88;;;;;;;;;;10167162;29;20096;-75
2024/01/24 08:44:17;;;;;;;3.80;1.13;;;;;;;;;;10162788;29;20127;-75
2024/01/24 08:49:22;;;;;;;9.55;1.92;;;;;;;;;;10154489;29;20701;-74
2024/01/24 08:54:25;;;;;;;7.88;1.85;;;;;;;;;;10163531;29;20056;-75
2024/01/24 08:59:29;;;;;;;12.48;2.97;;;;;;;;;;10165065;29;20115;-75
2024/01/24 09:04:36;;;;;;;11.02;2.50;;;;;;;;;;10166657;29;20414;-74
2024/01/24 09:09:39;;;;;;;12.38;2.92;;;;;;;;;;10167250;29;20052;-75
2024/01/24 09:14:44;;;;;;;10.05;2.63;;;;;;;;;;10171146;29;20055;-75
2024/01/24 09:19:49;;;;;;;9.75;2.72;;;;;;;;;;10163774;29;20146;-75
2024/01/24 09:24:52;;;;;;;10.20;2.72;;;;;;;;;;10159411;29;20051;-75
2024/01/24 09:29:55;;;;;;;8.25;2.80;;;;;;;;;;10162208;29;20058;-75
2024/01/24 09:35:00;;;;;;;11.68;3.05;;;;;;;;;;10162717;29;20047;-75
2024/01/24 09:40:04;;;;;;;12.35;2.97;;;;;;;;;;10165628;29;20504;-75
2024/01/24 09:45:09;;;;;;;16.67;2.67;;;;;;;;;;10163649;29;20134;-75
2024/01/24 09:50:15;;;;;;;13.05;3.15;;;;;;;;;;10161395;29;20048;-74
2024/01/24 09:55:20;;;;;;;22.05;4.85;;;;;;;;;;10161378;29;20593;-75
2024/01/24 10:00:23;;;;;;;15.00;4.28;;;;;;;;;;10163978;29;20465;-75
2024/01/24 10:05:28;;;;;;;13.82;3.65;;;;;;;;;;10162903;29;20084;-75
2024/01/24 10:10:32;;;;;;;13.25;3.42;;;;;;;;;;10160509;29;20047;-75
2024/01/24 10:15:38;;;;;;;11.63;3.58;;;;;;;;;;10160140;29;20052;-75
2024/01/24 10:20:46;;;;;;;12.38;2.75;;;;;;;;;;10159710;29;20087;-75
2024/01/24 10:25:49;;;;;;;13.32;3.75;;;;;;;;;;10174771;29;20056;-74
2024/01/24 10:30:53;;;;;;;13.60;3.95;;;;;;;;;;10160384;29;20491;-74
2024/01/24 10:35:59;;;;;;;13.52;3.80;;;;;;;;;;10159351;29;20076;-75
2024/01/24 10:41:03;;;;;;;13.52;3.40;;;;;;;;;;10162788;29;20066;-75
2024/01/24 10:46:08;;;;;;;12.02;3.47;;;;;;;;;;10154482;29;20494;-74
2024/01/24 10:51:13;;;;;;;21.33;4.00;;;;;;;;;;10159421;29;20144;-75
2024/01/24 10:56:17;;;;;;;15.38;3.80;;;;;;;;;;10159756;29;20036;-75
2024/01/24 11:01:20;;;;;;;15.45;3.60;;;;;;;;;;10159364;29;20126;-75
2024/01/24 11:06:28;;;;;;;16.98;3.88;;;;;;;;;;10159599;29;20415;-75
2024/01/24 11:11:34;;;;;;;17.80;4.20;;;;;;;;;;10176808;23;20062;-75
2024/01/24 11:16:39;;;;;;;;;;;;;;;;;;10163289;29;20143;-75
2024/01/24 11:21:44;;;;;;;14.13;3.83;;;;;;;;;;10161544;29;19931;-75
2024/01/24 11:26:48;;;;;;;16.58;3.83;;;;;;;;;;10156646;29;20449;-75
2024/01/24 11:31:52;;;;;;;13.10;3.45;;;;;;;;;;10156011;29;20048;-75
2024/01/24 11:36:57;;;;;;;15.40;4.03;;;;;;;;;;10145728;29;20055;-76
2024/01/24 11:42:36;;;;;;;17.75;4.15;;;;;;;;;;10147963;29;20487;-77
2024/01/24 11:47:40;;;;;;;14.57;4.38;;;;;;;;;;10158779;29;20403;-77
2024/01/24 11:52:45;;;;;;;14.90;4.18;;;;;;;;;;10165410;29;20104;-76
2024/01/24 11:57:49;;;;;;;14.30;4.17;;;;;;;;;;10171356;29;20068;-76
2024/01/24 12:02:52;;;;;;;19.25;4.70;;;;;;;;;;10180616;29;20048;-77
2024/01/24 12:07:57;;;;;;;15.55;4.38;;;;;;;;;;10157748;29;20127;-76
2024/01/24 12:13:01;;;;;;;15.48;4.20;;;;;;;;;;10164844;29;20135;-76
2024/01/24 12:18:06;;;;;;;15.25;3.70;;;;;;;;;;10169468;29;20512;-77
2024/01/24 12:23:11;;;;;;;18.55;4.50;;;;;;;;;;10165938;29;20170;-77
2024/01/24 12:28:15;;;;;;;15.77;4.55;;;;;;;;;;10172238;29;20058;-77
2024/01/24 12:33:18;;;;;;;15.98;4.00;;;;;;;;;;10160746;29;20062;-76
2024/01/24 12:38:23;;;;;;;20.60;4.72;;;;;;;;;;10169069;29;20048;-77
2024/01/24 12:43:27;;;;;;;15.15;4.07;;;;;;;;;;10171756;29;20052;-76
2024/01/24 12:48:30;;;;;;;20.42;4.15;;;;;;;;;;10167551;29;20058;-76
2024/01/24 12:53:35;;;;;;;17.75;4.50;;;;;;;;;;10166104;29;20072;-76
2024/01/24 12:58:38;;;;;;;14.50;3.97;;;;;;;;;;10161515;29;20044;-76
2024/01/24 13:03:42;;;;;;;23.50;5.72;;;;;;;;;;10161634;29;20083;-76
2024/01/24 13:08:47;;;;;;;24.65;6.80;;;;;;;;;;10166773;29;20503;-77
2024/01/24 13:13:50;;;;;;;17.92;4.95;;;;;;;;;;10172092;29;20052;-76
2024/01/24 13:18:53;;;;;;;19.08;4.68;;;;;;;;;;10166666;29;20051;-77
2024/01/24 13:24:01;;;;;;;21.23;4.70;;;;;;;;;;10164312;29;20044;-77
2024/01/24 13:29:05;;;;;;;16.40;4.85;;;;;;;;;;10162962;29;20059;-76
2024/01/24 13:34:08;;;;;;;19.23;4.90;;;;;;;;;;10163797;29;20526;-76
2024/01/24 13:39:14;;;;;;;17.27;4.25;;;;;;;;;;10166249;29;20134;-77
2024/01/24 13:44:18;;;;;;;19.73;5.38;;;;;;;;;;10163077;28;20056;-76
2024/01/24 13:49:21;;;;;;;23.25;5.53;;;;;;;;;;10160640;28;20062;-76
2024/01/24 13:54:25;;;;;;;16.85;4.05;;;;;;;;;;10164040;29;20090;-76
2024/01/24 13:59:29;;;;;;;20.67;4.60;;;;;;;;;;10166559;29;20043;-77
2024/01/24 14:04:32;;;;;;;19.75;5.30;;;;;;;;;;10166019;29;20530;-77
2024/01/24 14:09:36;;;;;;;29.17;4.80;;;;;;;;;;10162215;29;20441;-77
2024/01/24 14:14:40;;;;;;;20.60;5.35;;;;;;;;;;10166188;29;20135;-76
2024/01/24 14:19:43;;;;;;;12.45;4.07;;;;;;;;;;10162505;29;20040;-77
2024/01/24 14:24:48;;;;;;;19.58;5.97;;;;;;;;;;10166559;29;20068;-76
2024/01/24 14:29:51;;;;;;;24.17;5.43;;;;;;;;;;10164314;29;20048;-77
2024/01/24 14:34:54;;;;;;;17.40;5.25;;;;;;;;;;10161092;29;20425;-76
2024/01/24 14:39:59;;;;;;;26.25;5.68;;;;;;;;;;10166970;29;20100;-77
2024/01/24 14:45:02;;;;;;;22.63;6.70;;;;;;;;;;10158722;29;20056;-76
2024/01/24 14:50:07;;;;;;;25.90;6.45;;;;;;;;;;10162135;29;20052;-76
2024/01/24 14:55:12;;;;;;;20.70;6.70;;;;;;;;;;10154301;29;20134;-76
2024/01/24 15:00:19;;;;;;;20.15;5.40;;;;;;;;;;10154840;29;20780;-77
2024/01/24 15:05:24;;;;;;;17.25;5.63;;;;;;;;;;10163403;29;20055;-76
2024/01/24 15:10:28;;;;;;;17.88;5.03;;;;;;;;;;10159472;29;20056;-76
2024/01/24 15:15:33;;;;;;;15.05;4.72;;;;;;;;;;10157341;29;20059;-76
2024/01/24 15:20:36;;;;;;;18.13;5.13;;;;;;;;;;10160285;29;20056;-77
2024/01/24 15:25:41;;;;;;;16.13;5.13;;;;;;;;;;10164152;29;20092;-76
2024/01/24 15:30:45;;;;;;;23.10;5.35;;;;;;;;;;10161675;29;20048;-77
2024/01/24 15:35:49;;;;;;;19.15;5.78;;;;;;;;;;10156421;29;20742;-76
2024/01/24 15:40:54;;;;;;;16.70;4.20;;;;;;;;;;10152629;29;20052;-75
2024/01/24 15:45:57;;;;;;;10.40;3.85;;;;;;;;;;10157975;29;20056;-75
2024/01/24 15:51:00;;;;;;;22.35;5.07;;;;;;;;;;10155460;29;20108;-76
2024/01/24 15:56:06;;;;;;;17.00;4.95;;;;;;;;;;10154827;29;20523;-75
2024/01/24 16:01:09;;;;;;;19.90;5.38;;;;;;;;;;10144635;29;20060;-76
2024/01/24 16:06:12;;;;;;;23.35;5.78;;;;;;;;;;10149657;29;20072;-75
2024/01/24 16:11:17;;;;;;;18.05;4.03;;;;;;;;;;10145147;29;20075;-76
2024/01/24 16:16:20;;;;;;;13.80;3.63;;;;;;;;;;10147886;29;20459;-76
2024/01/24 16:21:25;;;;;;;25.50;5.50;;;;;;;;;;10150695;29;20056;-75
2024/01/24 16:26:29;;;;;;;21.92;5.50;;;;;;;;;;10142082;29;20049;-75
2024/01/24 16:31:33;;;;;;;17.52;5.00;;;;;;;;;;10159882;29;20532;-77
2024/01/24 16:36:36;;;;;;;14.75;5.15;;;;;;;;;;10159798;29;20052;-75
2024/01/24 16:41:40;;;;;;;15.18;4.50;;;;;;;;;;10155548;29;20048;-76
2024/01/24 16:46:44;;;;;;;14.13;4.25;;;;;;;;;;10157824;29;20051;-75
2024/01/24 16:51:47;;;;;;;12.43;3.72;;;;;;;;;;10164495;29;20423;-75
2024/01/24 16:56:51;;;;;;;20.83;5.30;;;;;;;;;;10170576;29;20452;-76
2024/01/24 17:01:55;;;;;;;20.67;5.65;;;;;;;;;;10169263;29;20063;-75
2024/01/24 17:06:58;;;;;;;17.85;5.18;;;;;;;;;;10165526;29;20056;-76
2024/01/24 17:12:08;;;;;;;21.42;5.28;;;;;;;;;;10213917;23;20515;-75
2024/01/24 17:17:12;;;;;;;12.00;4.25;;;;;;;;;;10190710;28;20515;-75
2024/01/24 17:22:16;;;;;;;14.45;4.80;;;;;;;;;;10166887;29;20516;-75
2024/01/24 17:27:21;;;;;;;13.98;3.78;;;;;;;;;;10159283;29;20079;-75
2024/01/24 17:32:24;;;;;;;15.45;4.70;;;;;;;;;;10153862;29;20048;-74
2024/01/24 17:37:27;;;;;;;15.25;4.28;;;;;;;;;;10163596;29;20197;-75
2024/01/24 17:42:32;;;;;;;12.60;4.20;;;;;;;;;;10160879;29;20051;-75
2024/01/24 17:47:35;;;;;;;21.90;5.47;;;;;;;;;;10156624;29;20420;-75
2024/01/24 17:52:41;;;;;;;15.00;3.75;;;;;;;;;;10157148;29;20052;-74
2024/01/24 17:57:46;;;;;;;19.40;5.03;;;;;;;;;;10157081;29;20052;-75
2024/01/24 18:02:49;;;;;;;14.23;4.13;;;;;;;;;;10174389;29;20047;-75
2024/01/24 18:07:54;;;;;;;17.35;4.38;;;;;;;;;;10160335;29;20499;-75
2024/01/24 18:12:59;;;;;;;13.70;3.45;;;;;;;;;;10160373;29;20051;-75
2024/01/24 18:18:03;;;;;;;10.70;3.38;;;;;;;;;;10164356;29;20055;-75
2024/01/24 18:23:07;;;;;;;15.48;4.00;;;;;;;;;;10155482;29;20064;-75
2024/01/24 18:28:12;;;;;;;15.15;4.80;;;;;;;;;;10157636;29;20052;-75
2024/01/24 18:33:15;;;;;;;18.95;5.70;;;;;;;;;;10158289;29;20411;-75
2024/01/24 18:38:18;;;;;;;26.58;6.20;;;;;;;;;;10163180;29;20059;-75
2024/01/24 18:43:23;;;;;;;15.85;4.45;;;;;;;;;;10158419;29;20091;-75
2024/01/24 18:48:26;;;;;;;13.18;3.90;;;;;;;;;;10157704;29;20071;-74
2024/01/24 18:53:30;;;;;;;14.82;4.20;;;;;;;;;;10150106;29;20135;-75
2024/01/24 18:58:35;;;;;;;9.50;3.80;;;;;;;;;;10154690;29;20044;-75
2024/01/24 19:03:39;;;;;;;10.23;3.58;;;;;;;;;;10158730;29;20086;-75
2024/01/24 19:08:42;;;;;;;7.22;3.08;;;;;;;;;;10162327;29;20067;-75
2024/01/24 19:13:47;;;;;;;10.00;3.22;;;;;;;;;;10159451;29;20056;-75
2024/01/24 19:18:51;;;;;;;9.68;2.80;;;;;;;;;;10159381;29;20064;-74
2024/01/24 19:24:24;;;;;;;9.35;2.83;;;;;;;;;;10159309;29;20048;-74
2024/01/24 19:30:16;;;;;;;7.78;2.40;;;;;;;;;;10159172;29;20132;-74
2024/01/24 19:35:49;;;;;;;11.27;2.80;;;;;;;;;;10157439;29;20055;-74
2024/01/24 19:40:53;;;;;;;9.90;2.72;;;;;;;;;;10147451;29;20446;-75
2024/01/24 19:45:58;;;;;;;13.95;4.63;;;;;;;;;;10155545;29;20390;-75
2024/01/24 19:51:01;;;;;;;19.95;5.13;;;;;;;;;;10144759;29;20059;-74
2024/01/24 19:56:05;;;;;;;19.77;5.80;;;;;;;;;;10157115;29;20048;-75
2024/01/24 20:01:10;;;;;;;14.27;4.65;;;;;;;;;;10165480;29;20067;-75
2024/01/24 20:06:14;;;;;;;17.02;4.82;;;;;;;;;;10162918;29;20056;-75
2024/01/24 20:11:18;;;;;;;15.75;4.68;;;;;;;;;;10165141;29;20123;-75
2024/01/24 20:16:23;;;;;;;12.73;3.92;;;;;;;;;;10168068;29;20052;-75
2024/01/24 20:21:27;;;;;;;15.45;4.47;;;;;;;;;;10165863;29;20044;-74
2024/01/24 20:26:33;;;;;;;17.77;4.13;;;;;;;;;;10166403;29;20060;-75
2024/01/24 20:31:37;;;;;;;18.58;3.92;;;;;;;;;;10168196;29;20135;-75
2024/01/24 20:36:41;;;;;;;23.08;5.45;;;;;;;;;;10168407;29;20051;-75
2024/01/24 20:41:46;;;;;;;21.80;5.00;;;;;;;;;;10158440;29;20461;-74
2024/01/24 20:46:50;;;;;;;15.50;4.07;;;;;;;;;;10161145;29;20472;-75
2024/01/24 20:51:54;;;;;;;21.30;5.72;;;;;;;;;;10161290;29;20131;-75
2024/01/24 20:56:57;;;;;;;18.52;4.15;;;;;;;;;;10160030;29;20056;-75
2024/01/24 21:02:02;;;;;;;20.48;5.38;;;;;;;;;;10178175;29;20084;-75
2024/01/24 21:07:07;;;;;;;19.63;4.93;;;;;;;;;;10162679;29;20555;-75
2024/01/24 21:12:10;;;;;;;18.00;4.35;;;;;;;;;;10156697;29;20107;-74
2024/01/24 21:17:19;;;;;;;18.50;4.57;;;;;;;;;;10161019;29;20166;-75
2024/01/24 21:22:23;;;;;;;;;;;;;;;;;;10166596;29;20503;-74
2024/01/24 21:27:31;;;;;;;17.63;4.78;;;;;;;;;;10164645;29;19930;-75
2024/01/24 21:32:35;;;;;;;15.63;4.10;;;;;;;;;;10163545;29;20052;-75
2024/01/24 21:37:38;;;;;;;20.95;5.13;;;;;;;;;;10158506;29;20048;-74
2024/01/24 21:42:42;;;;;;;13.15;3.38;;;;;;;;;;10161208;29;20040;-75
2024/01/24 21:47:46;;;;;;;16.67;4.90;;;;;;;;;;10157531;29;20054;-75
2024/01/24 21:52:50;;;;;;;16.45;4.50;;;;;;;;;;10155874;29;20042;-75
2024/01/24 21:57:53;;;;;;;20.60;4.35;;;;;;;;;;10154920;29;20044;-74
2024/01/24 22:02:58;;;;;;;19.40;4.90;;;;;;;;;;10162614;29;20129;-74
2024/01/24 22:08:01;;;;;;;15.27;4.25;;;;;;;;;;10156618;29;20063;-75
2024/01/24 22:13:05;;;;;;;14.52;4.18;;;;;;;;;;10161405;29;20052;-75
2024/01/24 22:18:10;;;;;;;20.33;5.13;;;;;;;;;;10163120;29;20660;-75
2024/01/24 22:23:13;;;;;;;10.63;3.78;;;;;;;;;;10158052;29;20431;-75
2024/01/24 22:28:17;;;;;;;15.02;3.83;;;;;;;;;;10156852;29;20119;-74
2024/01/24 22:33:21;;;;;;;18.40;4.45;;;;;;;;;;10155425;29;20411;-75
2024/01/24 22:38:25;;;;;;;12.40;3.53;;;;;;;;;;10158035;29;20060;-75
2024/01/24 22:43:28;;;;;;;20.25;4.18;;;;;;;;;;10156443;29;20060;-74
2024/01/24 22:48:33;;;;;;;13.25;3.95;;;;;;;;;;10156544;29;20048;-74
2024/01/24 22:53:36;;;;;;;12.70;3.88;;;;;;;;;;10153801;29;20048;-75
2024/01/24 22:58:39;;;;;;;18.80;4.93;;;;;;;;;;10155126;29;20052;-75
2024/01/24 23:03:44;;;;;;;15.93;4.28;;;;;;;;;;10161281;29;20132;-74
2024/01/24 23:08:47;;;;;;;17.50;4.63;;;;;;;;;;10176642;23;20060;-75
2024/01/24 23:13:51;;;;;;;18.90;4.85;;;;;;;;;;10146485;28;20398;-75
2024/01/24 23:18:55;;;;;;;20.00;4.10;;;;;;;;;;10130885;29;20117;-75
2024/01/24 23:23:59;;;;;;;18.40;4.47;;;;;;;;;;10127749;29;20068;-75
2024/01/24 23:29:02;;;;;;;22.00;4.60;;;;;;;;;;10120043;29;20058;-75
2024/01/24 23:34:07;;;;;;;20.90;4.22;;;;;;;;;;10113835;29;20073;-75
2024/01/24 23:39:10;;;;;;;9.70;3.45;;;;;;;;;;10124859;29;20425;-75
2024/01/24 23:44:14;;;;;;;19.95;4.75;;;;;;;;;;10127976;29;20512;-75
2024/01/24 23:49:19;;;;;;;13.35;3.63;;;;;;;;;;10127816;29;20128;-75
2024/01/24 23:54:22;;;;;;;17.00;4.07;;;;;;;;;;10131413;29;20057;-75
2024/01/24 23:59:25;;;;;;;11.10;3.58;;;;;;;;;;10128775;29;20082;-75
